Time;durP1;ratioP1;P1;durP2;ratioP2;P2;SDS_P1;SDS_P2;PMS_P1;PMS_P2;Temp;Humidity;BMP_temperature;BMP_pressure;BME280_temperature;BME280_humidity;BME280_pressure;Samples;Min_cycle;Max_cycle;Signal;HPM_P1;HPM_P2
2022/12/18 00:00:13;;;;;;;0.87;0.87;;;13.60;62.20;;;;;;5114358;28;20676;-63
2022/12/18 00:03:01;;;;;;;1.00;1.00;;;13.50;62.50;;;;;;5112532;28;20306;-63
2022/12/18 00:05:50;;;;;;;0.40;0.40;;;13.30;61.80;;;;;;5112887;28;20445;-62
2022/12/18 00:08:38;;;;;;;0.40;0.40;;;13.30;62.60;;;;;;5113741;28;20449;-62
2022/12/18 00:11:28;;;;;;;0.40;0.40;;;13.20;62.40;;;;;;5113524;28;20272;-63
2022/12/18 00:14:16;;;;;;;0.40;0.40;;;13.10;62.50;;;;;;5114110;28;20442;-64
2022/12/18 00:17:05;;;;;;;0.40;0.40;;;13.00;62.50;;;;;;5113969;28;20422;-64
2022/12/18 00:19:53;;;;;;;3.03;2.83;;;12.80;62.20;;;;;;5113685;28;20199;-63
2022/12/18 00:22:41;;;;;;;1.13;1.07;;;12.80;61.90;;;;;;5113426;28;20203;-64
2022/12/18 00:25:29;;;;;;;3.77;3.47;;;12.70;62.60;;;;;;5113198;28;20283;-63
2022/12/18 00:28:17;;;;;;;1.53;1.53;;;12.60;62.90;;;;;;5113504;28;20535;-63
2022/12/18 00:31:08;;;;;;;0.40;0.40;;;12.60;63.40;;;;;;5111816;28;20482;-64
2022/12/18 00:33:58;;;;;;;1.80;1.70;;;12.60;63.00;;;;;;5113357;28;20449;-63
2022/12/18 00:36:48;;;;;;;0.57;0.57;;;12.60;64.50;;;;;;5112931;28;20508;-64
2022/12/18 00:39:36;;;;;;;0.40;0.40;;;12.80;64.40;;;;;;5111601;28;20206;-64
2022/12/18 00:45:41;;;;;;;1.20;1.10;;;13.20;64.20;;;;;;5050624;28;20424;-64
2022/12/18 00:48:30;;;;;;;0.43;0.43;;;13.30;63.80;;;;;;5111996;28;20818;-64
2022/12/18 00:51:19;;;;;;;1.03;1.03;;;13.50;63.80;;;;;;5112089;28;20543;-64
2022/12/18 00:54:07;;;;;;;0.40;0.40;;;13.50;63.30;;;;;;5112828;28;20437;-64
2022/12/18 00:56:55;;;;;;;0.40;0.40;;;13.60;63.30;;;;;;5113657;28;20505;-64
2022/12/18 00:59:43;;;;;;;0.40;0.40;;;13.70;63.20;;;;;;5112760;28;20992;-66
2022/12/18 01:02:32;;;;;;;0.40;0.40;;;13.70;63.00;;;;;;5117758;28;20421;-64
2022/12/18 01:05:20;;;;;;;0.50;0.50;;;13.70;62.70;;;;;;5116311;28;20419;-64
2022/12/18 01:08:09;;;;;;;0.40;0.40;;;13.70;62.70;;;;;;5117756;28;20693;-64
2022/12/18 01:10:57;;;;;;;0.57;0.57;;;13.70;62.80;;;;;;5117455;28;20467;-65
2022/12/18 01:13:46;;;;;;;0.40;0.40;;;13.60;62.30;;;;;;5117502;28;20445;-64
2022/12/18 01:16:34;;;;;;;1.10;1.07;;;13.60;62.70;;;;;;5116560;28;20195;-63
2022/12/18 01:19:22;;;;;;;0.40;0.40;;;13.50;62.30;;;;;;5116868;28;20736;-63
2022/12/18 01:22:10;;;;;;;0.40;0.40;;;13.40;62.70;;;;;;5117091;28;20506;-64
2022/12/18 01:24:59;;;;;;;0.40;0.40;;;13.40;62.70;;;;;;5116307;28;20349;-64
2022/12/18 01:27:47;;;;;;;0.40;0.40;;;13.30;62.20;;;;;;5116594;28;20424;-63
2022/12/18 01:30:35;;;;;;;2.03;1.93;;;13.20;61.80;;;;;;5116747;28;20712;-63
2022/12/18 01:33:23;;;;;;;0.40;0.40;;;13.00;62.30;;;;;;5116932;28;20516;-63
2022/12/18 01:36:21;;;;;;;0.40;0.40;;;13.00;62.00;;;;;;5116791;28;20413;-64
2022/12/18 01:39:12;;;;;;;0.87;0.87;;;12.90;62.00;;;;;;5115647;28;20200;-63
2022/12/18 01:42:10;;;;;;;1.33;1.33;;;12.80;62.80;;;;;;5115384;28;20968;-64
2022/12/18 01:45:02;;;;;;;0.43;0.43;;;12.80;62.20;;;;;;5115628;28;20958;-63
2022/12/18 01:47:53;;;;;;;0.93;0.93;;;12.70;62.60;;;;;;5114960;28;20512;-62
2022/12/18 01:50:42;;;;;;;0.40;0.40;;;12.70;62.40;;;;;;5114656;28;20975;-64
2022/12/18 01:53:31;;;;;;;0.97;0.97;;;12.70;63.00;;;;;;5115964;28;20609;-63
2022/12/18 01:56:21;;;;;;;0.53;0.53;;;12.70;64.10;;;;;;5115644;28;20324;-64
2022/12/18 01:59:12;;;;;;;0.50;0.50;;;12.90;64.00;;;;;;5114985;28;20214;-64
2022/12/18 02:02:00;;;;;;;0.50;0.50;;;13.10;63.90;;;;;;5115695;28;20434;-64
2022/12/18 02:04:49;;;;;;;0.43;0.43;;;13.30;63.70;;;;;;5114813;28;20223;-65
2022/12/18 02:07:46;;;;;;;0.50;0.50;;;13.40;63.50;;;;;;5111529;28;20441;-64
2022/12/18 02:10:40;;;;;;;1.63;1.53;;;13.50;63.20;;;;;;5113673;28;20211;-63
2022/12/18 02:13:36;;;;;;;0.40;0.40;;;12.70;62.10;;;;;;5114869;28;20437;-64
2022/12/18 02:16:35;;;;;;;0.40;0.40;;;13.60;62.80;;;;;;5115592;28;20417;-63
2022/12/18 02:19:41;;;;;;;0.70;0.70;;;13.70;62.70;;;;;;5115401;28;20418;-63
2022/12/18 02:22:41;;;;;;;0.83;0.83;;;13.70;62.70;;;;;;5115538;28;20421;-63
2022/12/18 02:25:45;;;;;;;0.40;0.40;;;13.70;62.50;;;;;;5114927;28;20414;-63
2022/12/18 02:28:37;;;;;;;0.40;0.40;;;13.70;62.30;;;;;;5115866;28;20421;-63
2022/12/18 02:31:27;;;;;;;0.40;0.40;;;13.70;62.30;;;;;;5116148;27;20465;-62
2022/12/18 02:34:17;;;;;;;1.80;1.70;;;13.60;62.00;;;;;;5116194;28;20215;-63
2022/12/18 02:37:11;;;;;;;0.40;0.40;;;13.50;61.60;;;;;;5114097;28;20508;-65
2022/12/18 02:40:00;;;;;;;0.40;0.40;;;13.50;61.90;;;;;;5114012;28;20200;-63
2022/12/18 02:42:48;;;;;;;0.80;0.80;;;13.30;67.10;;;;;;5113600;28;20202;-64
2022/12/18 02:45:46;;;;;;;0.40;0.40;;;13.30;61.90;;;;;;5115655;27;20206;-63
2022/12/18 02:48:35;;;;;;;0.40;0.40;;;13.30;61.50;;;;;;5114801;28;20459;-64
2022/12/18 02:51:30;;;;;;;0.50;0.50;;;13.20;61.50;;;;;;5114853;28;20218;-63
2022/12/18 02:54:27;;;;;;;0.40;0.40;;;13.10;61.10;;;;;;5114387;28;20924;-63
2022/12/18 02:57:21;;;;;;;1.67;1.67;;;13.00;61.30;;;;;;5114600;28;20209;-63
2022/12/18 03:00:13;;;;;;;0.40;0.40;;;13.00;61.80;;;;;;5113800;28;20945;-63
2022/12/18 03:03:08;;;;;;;0.40;0.40;;;12.80;61.60;;;;;;5113852;28;20438;-64
2022/12/18 03:06:02;;;;;;;0.80;0.80;;;12.80;62.10;;;;;;5115155;27;20505;-64
2022/12/18 03:08:54;;;;;;;0.40;0.40;;;12.70;62.10;;;;;;5113587;28;20195;-63
2022/12/18 03:15:00;;;;;;;0.77;0.77;;;12.60;62.20;;;;;;5114055;28;20455;-64
2022/12/18 03:17:57;;;;;;;0.40;0.40;;;12.50;62.80;;;;;;5113175;28;20517;-64
2022/12/18 03:20:50;;;;;;;3.83;3.50;;;12.50;63.30;;;;;;5114590;27;20409;-64
2022/12/18 03:23:43;;;;;;;0.40;0.40;;;12.50;63.90;;;;;;5113004;28;20452;-64
2022/12/18 03:26:33;;;;;;;0.40;0.40;;;12.60;63.80;;;;;;5115025;28;20449;-65
2022/12/18 03:29:25;;;;;;;3.80;1.63;;;12.70;63.70;;;;;;5113060;28;20914;-64
2022/12/18 03:32:18;;;;;;;0.40;0.40;;;12.90;63.50;;;;;;5112793;28;20473;-63
2022/12/18 03:35:08;;;;;;;0.40;0.40;;;13.00;63.30;;;;;;5112250;28;20429;-64
2022/12/18 03:37:58;;;;;;;0.40;0.40;;;13.10;63.20;;;;;;5112544;28;20199;-63
2022/12/18 03:40:57;;;;;;;0.40;0.40;;;13.20;63.00;;;;;;5112239;28;20420;-63
2022/12/18 03:43:52;;;;;;;0.40;0.40;;;13.20;62.80;;;;;;5112921;28;20501;-64
2022/12/18 03:46:47;;;;;;;0.40;0.40;;;13.20;62.50;;;;;;5113185;28;20421;-65
2022/12/18 03:49:39;;;;;;;0.40;0.40;;;13.20;62.70;;;;;;5112407;28;20424;-67
2022/12/18 03:52:31;;;;;;;0.40;0.40;;;13.20;62.00;;;;;;5113026;28;20223;-63
2022/12/18 03:55:22;;;;;;;0.40;0.40;;;13.20;62.20;;;;;;5113335;28;20425;-64
2022/12/18 03:58:13;;;;;;;0.40;0.40;;;13.10;62.30;;;;;;5113085;28;20509;-64
2022/12/18 04:01:06;;;;;;;0.40;0.40;;;13.00;62.00;;;;;;5114428;28;20448;-63
2022/12/18 04:03:55;;;;;;;0.40;0.40;;;13.00;62.50;;;;;;5113508;28;20506;-64
2022/12/18 04:06:47;;;;;;;0.40;0.40;;;13.00;61.60;;;;;;5113081;28;20457;-62
2022/12/18 04:09:37;;;;;;;0.40;0.40;;;12.90;62.00;;;;;;5112334;28;20202;-61
2022/12/18 04:12:27;;;;;;;0.50;0.50;;;12.80;61.90;;;;;;5111675;28;20215;-62
2022/12/18 04:15:15;;;;;;;0.40;0.40;;;12.70;62.10;;;;;;5112117;28;20554;-62
2022/12/18 04:18:04;;;;;;;0.40;0.40;;;12.70;61.90;;;;;;5112209;28;20201;-61
2022/12/18 04:20:52;;;;;;;1.27;1.17;;;12.70;62.20;;;;;;5112011;28;20203;-63
2022/12/18 04:23:40;;;;;;;0.40;0.40;;;12.60;62.10;;;;;;5111236;28;20806;-62
2022/12/18 04:26:29;;;;;;;0.90;0.90;;;12.50;62.10;;;;;;5111695;28;20429;-62
2022/12/18 04:29:18;;;;;;;1.67;1.57;;;12.40;62.70;;;;;;5110772;28;20432;-62
2022/12/18 04:32:06;;;;;;;0.40;0.40;;;12.40;63.70;;;;;;5111821;28;20548;-63
2022/12/18 04:34:54;;;;;;;0.50;0.50;;;12.60;63.70;;;;;;5111988;28;20441;-63
2022/12/18 04:37:42;;;;;;;3.50;1.23;;;12.80;63.60;;;;;;5114865;28;20443;-63
2022/12/18 04:40:30;;;;;;;0.67;0.67;;;12.90;63.30;;;;;;5115962;28;20417;-64
2022/12/18 04:43:18;;;;;;;0.40;0.40;;;13.10;63.20;;;;;;5115774;28;20526;-63
2022/12/18 04:46:09;;;;;;;0.40;0.40;;;13.20;62.80;;;;;;5114792;28;20944;-64
2022/12/18 04:48:57;;;;;;;0.40;0.40;;;13.30;62.70;;;;;;5116086;28;20421;-62
2022/12/18 04:51:45;;;;;;;0.90;0.90;;;13.40;62.50;;;;;;5115865;28;20475;-62
2022/12/18 04:54:33;;;;;;;0.40;0.40;;;13.50;62.40;;;;;;5116304;28;20717;-64
2022/12/18 04:57:21;;;;;;;0.83;0.83;;;13.50;62.20;;;;;;5115359;28;20198;-62
2022/12/18 05:00:10;;;;;;;0.50;0.50;;;13.50;62.10;;;;;;5115718;28;20203;-62
2022/12/18 05:03:01;;;;;;;1.17;1.17;;;13.40;62.50;;;;;;5115116;28;20199;-62
2022/12/18 05:05:50;;;;;;;0.40;0.40;;;13.40;61.60;;;;;;5116092;28;20199;-63
2022/12/18 05:08:38;;;;;;;1.03;1.03;;;13.30;61.10;;;;;;5115538;28;20421;-62
2022/12/18 05:11:26;;;;;;;0.40;0.40;;;13.30;61.70;;;;;;5114326;28;20198;-63
2022/12/18 05:14:14;;;;;;;0.47;0.47;;;13.20;61.40;;;;;;5115506;28;20303;-63
2022/12/18 05:17:02;;;;;;;0.40;0.40;;;13.10;61.60;;;;;;5114465;28;20840;-63
2022/12/18 05:19:52;;;;;;;0.40;0.40;;;13.00;61.40;;;;;;5115605;28;20268;-62
2022/12/18 05:22:40;;;;;;;0.40;0.40;;;12.80;61.40;;;;;;5116351;28;20418;-65
2022/12/18 05:25:28;;;;;;;0.40;0.40;;;12.90;61.50;;;;;;5114706;28;20562;-65
2022/12/18 05:28:16;;;;;;;0.90;0.90;;;12.80;61.70;;;;;;5115146;28;20207;-63
2022/12/18 05:31:05;;;;;;;0.40;0.40;;;12.70;61.40;;;;;;5115206;28;20424;-64
2022/12/18 05:33:53;;;;;;;0.40;0.40;;;12.60;61.60;;;;;;5114898;28;20445;-62
2022/12/18 05:36:43;;;;;;;0.40;0.40;;;12.60;62.10;;;;;;5114769;28;20418;-63
2022/12/18 05:39:31;;;;;;;0.40;0.40;;;12.60;61.90;;;;;;5114488;28;21075;-63
2022/12/18 05:42:19;;;;;;;0.40;0.40;;;12.60;62.20;;;;;;5114586;28;20420;-62
2022/12/18 05:45:08;;;;;;;0.50;0.50;;;12.60;62.40;;;;;;5113108;28;20417;-63
2022/12/18 05:47:56;;;;;;;0.40;0.40;;;12.60;63.40;;;;;;5113872;28;20937;-62
2022/12/18 05:50:46;;;;;;;0.40;0.40;;;12.70;63.30;;;;;;5113844;28;20210;-63
2022/12/18 05:53:36;;;;;;;0.40;0.40;;;12.90;63.10;;;;;;5114870;28;20476;-63
2022/12/18 05:56:25;;;;;;;0.40;0.40;;;13.00;62.90;;;;;;5114185;28;20430;-66
2022/12/18 05:59:13;;;;;;;1.30;1.30;;;13.10;62.70;;;;;;5113571;28;20286;-63
2022/12/18 06:02:01;;;;;;;0.40;0.40;;;13.20;62.60;;;;;;5114817;28;20269;-64
2022/12/18 06:04:49;;;;;;;1.60;1.60;;;13.30;62.60;;;;;;5113895;28;20460;-63
2022/12/18 06:07:37;;;;;;;0.40;0.40;;;13.30;62.40;;;;;;5114474;28;20493;-63
2022/12/18 06:10:27;;;;;;;0.40;0.40;;;13.30;62.30;;;;;;5113992;28;20418;-64
2022/12/18 06:13:15;;;;;;;0.50;0.50;;;13.30;62.20;;;;;;5114066;28;20230;-62
2022/12/18 06:16:04;;;;;;;0.40;0.40;;;13.20;62.10;;;;;;5114388;28;20433;-63
2022/12/18 06:18:52;;;;;;;2.30;1.20;;;13.20;62.00;;;;;;5113433;28;20417;-63
2022/12/18 06:21:40;;;;;;;0.40;0.40;;;13.10;62.70;;;;;;5112251;28;20458;-62
2022/12/18 06:24:28;;;;;;;0.40;0.40;;;13.10;62.20;;;;;;5112913;28;20433;-63
2022/12/18 06:27:18;;;;;;;0.40;0.40;;;13.00;61.60;;;;;;5113802;28;20431;-62
2022/12/18 06:30:07;;;;;;;0.40;0.40;;;13.00;61.80;;;;;;5112617;28;20984;-64
2022/12/18 06:32:56;;;;;;;0.40;0.40;;;12.80;71.10;;;;;;5113169;28;20552;-63
2022/12/18 06:35:44;;;;;;;0.40;0.40;;;12.80;61.70;;;;;;5113216;28;20485;-62
2022/12/18 06:38:32;;;;;;;0.70;0.70;;;12.70;61.70;;;;;;5113457;28;20940;-64
2022/12/18 06:41:21;;;;;;;0.40;0.40;;;12.60;62.00;;;;;;5113832;28;20483;-63
2022/12/18 06:44:11;;;;;;;0.50;0.50;;;12.60;62.10;;;;;;5113407;28;20865;-62
2022/12/18 06:46:59;;;;;;;0.50;0.50;;;12.60;62.60;;;;;;5113011;28;21004;-63
2022/12/18 06:49:47;;;;;;;0.50;0.50;;;12.60;62.30;;;;;;5115156;27;20195;-62
2022/12/18 06:52:36;;;;;;;0.40;0.40;;;12.60;63.00;;;;;;5112080;28;20459;-63
2022/12/18 06:55:24;;;;;;;0.50;0.50;;;12.70;63.10;;;;;;5111824;28;20418;-62
2022/12/18 06:58:12;;;;;;;0.80;0.80;;;12.80;63.30;;;;;;5114023;27;20424;-63
2022/12/18 07:01:03;;;;;;;0.40;0.40;;;13.00;63.30;;;;;;5112655;28;20195;-63
2022/12/18 07:03:54;;;;;;;0.40;0.40;;;13.10;63.00;;;;;;5112653;28;20972;-65
2022/12/18 07:06:42;;;;;;;4.67;4.33;;;13.20;62.80;;;;;;5113326;28;20425;-63
2022/12/18 07:09:30;;;;;;;0.40;0.40;;;13.30;62.80;;;;;;5112883;28;20516;-62
2022/12/18 07:12:18;;;;;;;0.40;0.40;;;13.30;62.50;;;;;;5111851;28;20196;-63
2022/12/18 07:15:07;;;;;;;0.50;0.50;;;13.30;62.60;;;;;;5113116;28;20461;-63
2022/12/18 07:17:57;;;;;;;0.40;0.40;;;13.30;62.50;;;;;;5112262;28;20797;-63
2022/12/18 07:20:45;;;;;;;0.80;0.80;;;13.30;62.40;;;;;;5112390;28;20614;-62
2022/12/18 07:23:35;;;;;;;0.40;0.40;;;13.20;61.70;;;;;;5113103;28;20438;-64
2022/12/18 07:26:24;;;;;;;0.40;0.40;;;13.20;62.50;;;;;;5112581;28;20691;-62
2022/12/18 07:29:12;;;;;;;0.40;0.40;;;13.10;62.10;;;;;;5112678;28;20512;-63
2022/12/18 07:32:00;;;;;;;0.40;0.40;;;13.00;62.40;;;;;;5111949;28;20422;-62
2022/12/18 07:34:49;;;;;;;0.40;0.40;;;13.00;62.30;;;;;;5112310;28;20429;-63
2022/12/18 07:37:37;;;;;;;5.40;4.20;;;12.90;61.90;;;;;;5112328;28;20202;-61
2022/12/18 07:40:25;;;;;;;0.40;0.40;;;12.90;62.00;;;;;;5111676;28;20421;-63
2022/12/18 07:43:13;;;;;;;0.40;0.40;;;12.80;61.60;;;;;;5112167;28;20961;-62
2022/12/18 07:46:02;;;;;;;0.40;0.40;;;12.70;62.10;;;;;;5112267;28;20964;-63
2022/12/18 07:48:50;;;;;;;6.80;6.50;;;12.60;61.80;;;;;;5112818;28;20563;-63
2022/12/18 07:51:40;;;;;;;0.40;0.40;;;12.60;62.30;;;;;;5111517;28;20498;-65
2022/12/18 07:54:28;;;;;;;1.47;1.37;;;12.50;62.40;;;;;;5112116;28;20462;-64
2022/12/18 07:57:16;;;;;;;0.70;0.70;;;12.50;63.50;;;;;;5112417;28;20925;-64
2022/12/18 08:00:24;;;;;;;0.40;0.40;;;12.60;63.50;;;;;;5111876;28;20799;-64
2022/12/18 08:03:16;;;;;;;1.17;1.17;;;12.80;63.40;;;;;;5111963;28;20456;-63
2022/12/18 08:06:06;;;;;;;0.40;0.40;;;13.10;63.30;;;;;;5112144;28;20426;-63
2022/12/18 08:08:56;;;;;;;2.80;2.60;;;13.20;63.00;;;;;;5111852;28;20937;-65
2022/12/18 08:11:45;;;;;;;2.50;2.40;;;13.40;62.80;;;;;;5111834;28;20428;-64
2022/12/18 08:14:33;;;;;;;1.63;0.90;;;13.60;62.50;;;;;;5112858;28;20233;-64
2022/12/18 08:17:21;;;;;;;2.70;2.60;;;13.60;62.20;;;;;;5112864;28;20240;-63
2022/12/18 08:20:10;;;;;;;0.40;0.40;;;13.70;62.00;;;;;;5114917;28;20987;-63
2022/12/18 08:22:58;;;;;;;1.00;1.00;;;13.80;61.90;;;;;;5112403;28;20421;-64
2022/12/18 08:25:47;;;;;;;0.40;0.40;;;13.80;61.90;;;;;;5112127;28;20436;-63
2022/12/18 08:28:35;;;;;;;0.40;0.40;;;13.80;61.80;;;;;;5113686;28;20417;-62
2022/12/18 08:31:25;;;;;;;0.40;0.40;;;13.80;61.80;;;;;;5113245;28;20948;-63
2022/12/18 08:34:13;;;;;;;1.80;0.90;;;13.80;61.60;;;;;;5112593;28;20684;-63
2022/12/18 08:37:01;;;;;;;0.40;0.40;;;13.80;61.70;;;;;;5114993;28;20441;-65
2022/12/18 08:39:49;;;;;;;0.40;0.40;;;13.70;61.40;;;;;;5113280;28;20690;-63
2022/12/18 08:45:44;;;;;;;0.40;0.40;;;13.50;61.30;;;;;;5112742;28;20417;-63
2022/12/18 08:48:32;;;;;;;0.40;0.40;;;13.40;61.50;;;;;;5112554;28;20206;-62
2022/12/18 08:51:21;;;;;;;0.40;0.40;;;13.30;61.40;;;;;;5110971;28;20203;-64
2022/12/18 08:54:12;;;;;;;0.70;0.70;;;13.20;61.10;;;;;;5112109;28;20465;-63
2022/12/18 08:57:00;;;;;;;0.40;0.40;;;13.10;61.30;;;;;;5112564;28;20206;-63
2022/12/18 08:59:49;;;;;;;0.40;0.40;;;13.00;61.50;;;;;;5112350;28;20199;-63
2022/12/18 09:02:38;;;;;;;0.40;0.40;;;12.50;61.20;;;;;;5111168;28;20418;-63
2022/12/18 09:05:26;;;;;;;0.50;0.50;;;12.80;61.40;;;;;;5112990;28;20197;-63
2022/12/18 09:08:14;;;;;;;0.40;0.40;;;12.70;61.50;;;;;;5112163;28;20435;-64
2022/12/18 09:11:03;;;;;;;0.40;0.40;;;12.60;61.90;;;;;;5112577;28;20203;-64
2022/12/18 09:13:51;;;;;;;0.40;0.40;;;12.60;61.90;;;;;;5111365;28;20227;-64
2022/12/18 09:16:41;;;;;;;1.37;1.20;;;12.60;62.40;;;;;;5111768;28;20417;-64
2022/12/18 09:19:29;;;;;;;1.03;1.03;;;12.70;63.30;;;;;;5116263;28;20213;-64
2022/12/18 09:22:17;;;;;;;0.40;0.40;;;12.80;63.20;;;;;;5113355;28;20214;-64
2022/12/18 09:25:07;;;;;;;0.40;0.40;;;13.00;63.10;;;;;;5114994;28;20206;-63
2022/12/18 09:27:55;;;;;;;2.10;2.00;;;13.20;62.90;;;;;;5115113;28;20804;-64
2022/12/18 09:30:45;;;;;;;0.40;0.40;;;13.30;62.70;;;;;;5116601;27;20413;-64
2022/12/18 09:33:35;;;;;;;5.50;3.97;;;13.40;62.50;;;;;;5114549;28;20219;-63
2022/12/18 09:36:24;;;;;;;0.90;0.90;;;13.50;62.40;;;;;;5115225;28;20505;-64
2022/12/18 09:39:12;;;;;;;1.07;1.07;;;13.50;62.20;;;;;;5115955;28;20423;-64
2022/12/18 09:42:00;;;;;;;0.40;0.40;;;13.60;62.10;;;;;;5115377;28;20199;-63
2022/12/18 09:44:51;;;;;;;0.40;0.40;;;13.60;62.10;;;;;;5113712;28;20984;-63
2022/12/18 09:47:41;;;;;;;0.40;0.40;;;13.60;61.80;;;;;;5114156;28;20809;-64
2022/12/18 09:50:34;;;;;;;0.40;0.40;;;13.60;61.70;;;;;;5114747;28;20199;-63
2022/12/18 09:53:28;;;;;;;0.40;0.40;;;13.60;61.90;;;;;;5114639;28;20218;-63
2022/12/18 09:56:22;;;;;;;0.40;0.40;;;13.50;61.70;;;;;;5114968;28;20196;-64
2022/12/18 09:59:21;;;;;;;0.40;0.40;;;13.50;61.90;;;;;;5114056;28;20424;-63
2022/12/18 10:02:16;;;;;;;0.40;0.40;;;13.40;62.30;;;;;;5114761;28;20464;-64
2022/12/18 10:05:07;;;;;;;0.40;0.40;;;13.30;61.70;;;;;;5115065;28;20364;-64
2022/12/18 10:08:06;;;;;;;0.40;0.40;;;13.20;61.60;;;;;;5114649;28;20286;-63
2022/12/18 10:10:58;;;;;;;0.40;0.40;;;13.20;61.60;;;;;;5113894;28;20425;-63
2022/12/18 10:13:52;;;;;;;0.40;0.40;;;13.00;61.90;;;;;;5113218;28;20444;-64
2022/12/18 10:16:48;;;;;;;0.40;0.40;;;13.00;61.70;;;;;;5113873;28;20203;-63
2022/12/18 10:19:48;;;;;;;0.50;0.50;;;12.90;62.00;;;;;;5114109;28;20200;-63
2022/12/18 10:22:47;;;;;;;0.50;0.50;;;12.90;62.20;;;;;;5113837;28;20208;-63
2022/12/18 10:25:46;;;;;;;0.40;0.40;;;12.90;62.20;;;;;;5113604;28;20453;-64
2022/12/18 10:28:36;;;;;;;0.60;0.60;;;12.90;62.20;;;;;;5113810;28;20256;-63
2022/12/18 10:31:25;;;;;;;5.20;2.20;;;12.90;62.60;;;;;;5113573;28;20191;-64
2022/12/18 10:34:14;;;;;;;2.30;2.10;;;12.90;63.00;;;;;;5113774;28;20470;-64
2022/12/18 10:37:07;;;;;;;3.73;1.67;;;13.00;62.90;;;;;;5113518;28;20432;-64
2022/12/18 10:40:11;;;;;;;0.40;0.40;;;13.20;63.00;;;;;;5113231;28;20208;-63
2022/12/18 10:43:13;;;;;;;0.40;0.40;;;13.30;62.70;;;;;;5113183;28;20445;-64
2022/12/18 10:46:05;;;;;;;0.40;0.40;;;13.40;62.60;;;;;;5112647;28;20793;-63
2022/12/18 10:48:55;;;;;;;0.40;0.40;;;13.40;62.40;;;;;;5114020;28;20426;-63
2022/12/18 10:51:44;;;;;;;0.40;0.40;;;13.50;62.40;;;;;;5112221;28;20195;-65
2022/12/18 10:54:34;;;;;;;6.33;5.93;;;13.50;62.20;;;;;;5111831;28;20885;-63
2022/12/18 10:57:34;;;;;;;1.10;1.10;;;13.50;62.10;;;;;;5114361;28;20422;-64
2022/12/18 11:00:27;;;;;;;0.40;0.40;;;13.50;62.00;;;;;;5113134;28;20418;-64
2022/12/18 11:03:32;;;;;;;0.43;0.43;;;13.50;61.70;;;;;;5112658;28;20520;-63
2022/12/18 11:06:23;;;;;;;0.40;0.40;;;13.40;61.60;;;;;;5113571;28;20508;-63
2022/12/18 11:09:20;;;;;;;0.70;0.70;;;13.30;62.10;;;;;;5111581;28;20202;-62
2022/12/18 11:12:17;;;;;;;0.40;0.40;;;13.30;61.70;;;;;;5112452;28;20197;-62
2022/12/18 11:15:06;;;;;;;0.40;0.40;;;13.20;61.80;;;;;;5114230;28;20460;-63
2022/12/18 11:17:56;;;;;;;0.70;0.70;;;13.20;61.60;;;;;;5112184;28;20413;-62
2022/12/18 11:20:52;;;;;;;0.70;0.70;;;13.10;61.50;;;;;;5112573;28;20282;-62
2022/12/18 11:23:50;;;;;;;0.40;0.40;;;13.00;61.60;;;;;;5111696;28;20505;-64
2022/12/18 11:26:39;;;;;;;0.40;0.40;;;12.90;61.60;;;;;;5112883;28;20420;-63
2022/12/18 11:29:34;;;;;;;0.60;0.60;;;12.80;61.80;;;;;;5111035;28;20515;-63
2022/12/18 11:32:32;;;;;;;0.40;0.40;;;12.80;62.20;;;;;;5112187;28;20428;-62
2022/12/18 11:35:26;;;;;;;0.40;0.40;;;12.70;62.30;;;;;;5113927;28;20560;-64
2022/12/18 11:38:23;;;;;;;0.40;0.40;;;12.70;62.40;;;;;;5112372;28;20672;-62
2022/12/18 11:41:20;;;;;;;0.40;0.40;;;12.60;62.30;;;;;;5112248;28;21016;-63
2022/12/18 11:44:11;;;;;;;0.40;0.40;;;12.70;63.50;;;;;;5111592;28;20508;-64
2022/12/18 11:47:04;;;;;;;0.47;0.47;;;12.80;63.40;;;;;;5111141;28;20509;-63
2022/12/18 11:49:53;;;;;;;0.70;0.70;;;13.10;63.30;;;;;;5111415;28;20418;-63
2022/12/18 11:52:43;;;;;;;0.40;0.40;;;13.40;63.00;;;;;;5112536;28;20417;-63
2022/12/18 11:55:40;;;;;;;0.90;0.90;;;13.60;62.60;;;;;;5112118;28;20835;-64
2022/12/18 11:58:42;;;;;;;2.10;1.67;;;13.80;62.40;;;;;;5112570;28;20512;-63
2022/12/18 12:01:40;;;;;;;0.40;0.40;;;13.90;62.20;;;;;;5112617;28;20507;-64
2022/12/18 12:04:43;;;;;;;0.50;0.50;;;14.00;62.00;;;;;;5114247;28;20467;-62
2022/12/18 12:07:43;;;;;;;0.43;0.43;;;14.10;61.80;;;;;;5113009;28;20739;-64
2022/12/18 12:10:43;;;;;;;0.50;0.50;;;14.10;61.70;;;;;;5113139;28;20195;-64
2022/12/18 12:13:42;;;;;;;0.40;0.40;;;14.10;61.60;;;;;;5113790;28;20300;-62
2022/12/18 12:16:38;;;;;;;0.40;0.40;;;14.10;61.40;;;;;;5113225;28;20226;-62
2022/12/18 12:19:43;;;;;;;0.40;0.40;;;14.10;61.40;;;;;;5113191;28;20215;-62
2022/12/18 12:22:42;;;;;;;0.70;0.70;;;14.10;61.30;;;;;;5114344;28;20198;-63
2022/12/18 12:25:39;;;;;;;0.40;0.40;;;14.00;61.30;;;;;;5112083;28;20203;-63
2022/12/18 12:28:42;;;;;;;0.50;0.50;;;14.00;61.50;;;;;;5111916;28;20199;-63
2022/12/18 12:31:44;;;;;;;2.20;2.10;;;13.90;61.50;;;;;;5113025;28;20191;-63
2022/12/18 12:34:37;;;;;;;0.40;0.40;;;13.70;60.90;;;;;;5111879;28;20292;-62
2022/12/18 12:37:34;;;;;;;0.50;0.50;;;13.60;61.30;;;;;;5114042;28;20199;-62
2022/12/18 12:40:27;;;;;;;0.50;0.50;;;13.50;61.10;;;;;;5112495;28;20937;-63
2022/12/18 12:43:42;;;;;;;0.67;0.67;;;13.40;61.30;;;;;;5110931;28;20231;-63
2022/12/18 12:46:40;;;;;;;0.40;0.40;;;13.30;61.40;;;;;;5113446;28;20199;-63
2022/12/18 12:49:32;;;;;;;0.40;0.40;;;13.20;61.70;;;;;;5111707;28;20429;-63
2022/12/18 12:52:34;;;;;;;0.40;0.40;;;13.10;61.80;;;;;;5113277;28;20776;-63
2022/12/18 12:55:25;;;;;;;0.40;0.40;;;13.00;61.90;;;;;;5112303;28;20467;-63
2022/12/18 12:58:24;;;;;;;0.40;0.40;;;13.00;62.30;;;;;;5115778;28;20428;-64
2022/12/18 13:01:22;;;;;;;0.40;0.40;;;12.90;62.10;;;;;;5115650;28;20481;-64
2022/12/18 13:04:21;;;;;;;0.40;0.40;;;12.90;62.70;;;;;;5116285;28;20460;-64
2022/12/18 13:07:16;;;;;;;0.80;0.80;;;12.90;63.30;;;;;;5117250;28;20249;-65
2022/12/18 13:10:25;;;;;;;0.77;0.77;;;13.10;63.30;;;;;;5115113;28;20424;-65
2022/12/18 13:13:15;;;;;;;0.40;0.40;;;13.30;63.10;;;;;;5115775;28;20441;-63
2022/12/18 13:16:10;;;;;;;0.40;0.40;;;13.60;62.90;;;;;;5116516;28;20481;-64
2022/12/18 13:18:59;;;;;;;0.40;0.40;;;13.80;62.50;;;;;;5116685;28;20930;-64
2022/12/18 13:21:54;;;;;;;0.40;0.40;;;13.90;62.30;;;;;;5116775;28;20425;-62
2022/12/18 13:24:42;;;;;;;0.40;0.40;;;14.00;62.10;;;;;;5115958;28;20306;-64
2022/12/18 13:28:12;;;;;;;0.50;0.50;;;14.10;62.00;;;;;;5116746;28;20202;-62
2022/12/18 13:31:02;;;;;;;0.60;0.60;;;14.10;61.80;;;;;;5108872;28;20579;-65
2022/12/18 13:33:51;;;;;;;0.40;0.40;;;14.20;61.80;;;;;;5115394;28;20661;-63
2022/12/18 13:37:41;;;;;;;0.40;0.40;;;14.20;61.70;;;;;;5115614;28;20715;-63
2022/12/18 13:40:57;;;;;;;0.40;0.40;;;14.10;61.60;;;;;;5117133;28;20217;-65
2022/12/18 13:43:48;;;;;;;0.40;0.40;;;14.10;61.60;;;;;;5115962;28;20699;-63
2022/12/18 13:46:44;;;;;;;0.50;0.50;;;14.10;61.40;;;;;;5116079;28;20428;-64
2022/12/18 13:49:39;;;;;;;0.50;0.50;;;14.00;61.40;;;;;;5118052;27;20588;-64
2022/12/18 13:52:34;;;;;;;0.70;0.70;;;14.00;61.30;;;;;;5116621;28;20206;-62
2022/12/18 13:55:23;;;;;;;0.40;0.40;;;13.90;61.30;;;;;;5116248;28;20614;-63
2022/12/18 13:58:13;;;;;;;0.40;0.40;;;13.70;61.50;;;;;;5114337;28;20663;-63
2022/12/18 14:01:04;;;;;;;0.40;0.40;;;13.70;61.60;;;;;;5115101;28;20317;-63
2022/12/18 14:04:09;;;;;;;0.40;0.40;;;13.60;61.50;;;;;;5117561;27;20461;-65
2022/12/18 14:07:03;;;;;;;0.40;0.40;;;13.50;61.60;;;;;;5114862;28;20275;-64
2022/12/18 14:09:56;;;;;;;0.40;0.40;;;13.40;61.60;;;;;;5115498;28;20702;-63
2022/12/18 14:13:07;;;;;;;0.40;0.40;;;13.30;61.70;;;;;;5115139;28;20437;-65
2022/12/18 14:15:57;;;;;;;0.40;0.40;;;13.20;62.20;;;;;;5115044;28;20210;-66
2022/12/18 14:18:49;;;;;;;3.60;3.50;;;13.10;62.00;;;;;;5116250;28;20809;-69
2022/12/18 14:21:38;;;;;;;0.40;0.40;;;13.00;61.90;;;;;;5115506;28;20676;-64
2022/12/18 14:24:27;;;;;;;0.40;0.40;;;13.00;62.30;;;;;;5114248;28;20445;-64
2022/12/18 14:27:26;;;;;;;0.40;0.40;;;12.90;62.50;;;;;;5114300;28;20418;-66
2022/12/18 14:30:26;;;;;;;0.40;0.40;;;12.90;63.30;;;;;;5114686;28;20439;-63
2022/12/18 14:33:16;;;;;;;0.43;0.43;;;13.00;63.30;;;;;;5113745;28;20215;-64
2022/12/18 14:36:05;;;;;;;0.40;0.40;;;13.20;63.30;;;;;;5114044;28;20219;-62
2022/12/18 14:38:55;;;;;;;0.40;0.40;;;13.30;63.20;;;;;;5114907;28;20204;-64
2022/12/18 14:41:43;;;;;;;0.43;0.43;;;13.40;63.00;;;;;;5114430;28;20428;-64
2022/12/18 14:44:33;;;;;;;0.40;0.40;;;13.40;62.70;;;;;;5114306;28;20257;-64
2022/12/18 14:47:37;;;;;;;0.40;0.40;;;13.50;62.70;;;;;;5116576;27;20199;-63
2022/12/18 14:50:26;;;;;;;0.80;0.80;;;13.50;62.60;;;;;;5114413;28;20196;-64
2022/12/18 14:53:23;;;;;;;0.40;0.40;;;13.60;62.70;;;;;;5114508;28;20444;-64
2022/12/18 14:56:17;;;;;;;0.50;0.50;;;13.50;62.40;;;;;;5113612;28;20211;-63
2022/12/18 14:59:13;;;;;;;0.40;0.40;;;13.50;62.30;;;;;;5113597;28;20199;-62
2022/12/18 15:02:19;;;;;;;2.97;2.10;;;13.50;62.30;;;;;;5114543;28;20671;-64
2022/12/18 15:05:19;;;;;;;1.93;1.83;;;13.40;62.00;;;;;;5115060;28;20417;-64